Manila, Philippines

11:29 AM PHT on October 25, 2014 (GMT +0800)
Dasmarinas | Change Station
CLOSE
Current Station
Personal Weather Station
Location: Makati, METRO MANILA
Elevation: 49 ft
Nearby Weather Stations

Elev 49 ft 14.55 °N, 121.03 °E | Updated 3 minutes ago

Partly Cloudy
Partly Cloudy
86.1 °F
Feels Like 92 °F
N
1.6
Wind Variable Wind from NE
Gusts 4.5 mph

Today
High -- | Low -- °F
--% Chance of Precip.
Yesterday
High -- | Low -- °F
Precip. -- in
5:49 AM 5:30 PM
New Moon, 2% visible
Pressure 29.89 in
Visibility 6.2 miles
Clouds Few 2500 ft
Heat Index 92 °F
Dew Point 72 °F
Humidity 62%
Rainfall 0.00 in
Snow Depth Not available.
UV 14 out of 12
Pollen Not available.
Air Quality Not available.
Flu Activity Not available.
METAR RPLL 250300Z 11008KT 050V190 9999 FEW025 32/23 Q1012 NOSIG RMK A2988

More Conditions Fewer Conditions

Pressure 29.89 in
Visibility 6.2 miles
Clouds Few 2500 ft
Heat Index 92 °F
Dew Point 72 °F
Humidity 62%
Rainfall 0.00 in
Snow Depth Not available.
UV 14 out of 12
Pollen Not available.
Air Quality Not available.
Flu Activity Not available.
METAR RPLL 250300Z 11008KT 050V190 9999 FEW025 32/23 Q1012 NOSIG RMK A2988

More Conditions Fewer Conditions

10-Day Weather Forecast

Almanac

Astronomy

Oct. 25, 2014 Rise Set
Actual Time 5:49 AM PHT 5:30 PM PHT
Civil Twilight 5:27 AM PHT 5:52 PM PHT
Nautical Twilight 5:02 AM PHT 6:17 PM PHT
Astronomical Twilight 4:37 AM PHT 6:42 PM PHT
Moon 6:45 AM PHT 6:38 PM PHT
Length of Visible Light 12h 25m
Length of Day
11h 41m
Tomorrow will be 0m 44s shorter.
New Moon, 2% of the Moon is Illuminated
Oct 24
New Moon
Oct 30
First Quarter
Nov 6
Full
Nov 14
Last Quarter
Nov 22
New

Yesterday's Extremes

Country Highs Country Lows

Community

WunderPhotos

Upload Photos

1,764,769 photos uploaded!

Nearby

Snow Depth

Not available.

Earthquake Activity

City Distance Mag. Time & Date
No recent earthquake activity has been reported nearby.
Minimum magnitude displayed is 2.5.

Coastal Water Temperatures

Place Temperature
No Stations Reporting

Nearby Weather Stations